LOWW

Vienna International Airport

Vienna, Austria
METAR LOWW 201650Z 10003KT CAVOK 24/15 Q1019 NOSIG
Observed Flight Rules
Sep-20 @ 16:50 UTC (29 minutes ago) Visual Flight Rules
Wind Visibility Clouds
100° at 3 knots 10,000+ meters
  • Clear skies
Temperatures Readings
Current 24°C / 75°F
Dewpoint 15°C / 59°F
Humidity 57%
Altimeter 30.09" Hg
Pressure 1019 hPa
Elevation 190
METAR LOWW 201650Z 10003KT CAVOK 24/15 Q1019 NOSIG
Observed Flight Rules
Sep-20 @ 16:50 UTC
(29 minutes ago)
VFR
Wind Visibility
100° at 3 knots 10,000+ meters
Clouds
  • Clear skies
Temperature Dewpoint
24°C / 75°F 15°C / 59°F
Humidity Altimeter Pressure
57% 30.09" Hg 1019 hPa